This is the latest recevied weather packets stored in our database for station/object AH6GR. If no packets are shown the sender has not sent any weather packets the latest 10 day(s).
| Time | Temp. | Humidity | Pressure | Rain* | Wind** | Luminosity | Snow |
|---|---|---|---|---|---|---|---|
| 1777486221 | 22.22° C | 80% | 1019.1 hPa | 0 mm | - | - | - |
| 1777485645 | 21.67° C | 84% | 1018 hPa | 0 mm | - | - | - |
| 1777485620 | 21.67° C | 83% | 1018.8 hPa | 0 mm | - | - | - |
| 1777485021 | 21.67° C | 83% | 1018.8 hPa | 0 mm | - | - | - |
| 1777484720 | 21.67° C | 83% | 1017.9 hPa | 0 mm | - | - | - |
| 1777484420 | 21.67° C | 84% | 1018.8 hPa | 0 mm | - | - | - |
| 1777483871 | 21.11° C | 84% | 1017.9 hPa | 0 mm | - | - | - |
| 1777483821 | 21.67° C | 83% | 1018.7 hPa | 0 mm | - | - | - |
| 1777483220 | 21.67° C | 83% | 1018.6 hPa | 0 mm | - | - | - |
| 1777482949 | 21.11° C | 83% | 1017.8 hPa | 0 mm | - | - | - |
| 1777482621 | 21.67° C | 84% | 1018.7 hPa | 0 mm | - | - | - |
| 1777482024 | 21.11° C | 83% | 1017.8 hPa | 0 mm | - | - | - |
| 1777482020 | 21.67° C | 83% | 1018.6 hPa | 0 mm | - | - | - |
| 1777481420 | 21.11° C | 84% | 1018.6 hPa | 0 mm | - | - | - |
| 1777481108 | 21.11° C | 84% | 1017.7 hPa | 0 mm | - | - | - |
| 1777480821 | 21.11° C | 85% | 1018.4 hPa | 0 mm | - | - | - |
| 1777480254 | 20.56° C | 85% | 1017.5 hPa | 0 mm | - | - | - |
| 1777480220 | 21.11° C | 85% | 1018.3 hPa | 0 mm | - | - | - |
| 1777479621 | 21.11° C | 82% | 1018.1 hPa | 0 mm | - | - | - |
| 1777479324 | 21.11° C | 82% | 1017.2 hPa | 0 mm | - | - | - |
| 1777479021 | 21.11° C | 82% | 1018.1 hPa | 0 mm | - | - | - |
| 1777478420 | 21.11° C | 82% | 1018 hPa | 0 mm | - | - | - |
| 1777478402 | 21.11° C | 82% | 1017.2 hPa | 0 mm | - | - | - |
| 1777477820 | 21.11° C | 82% | 1017.9 hPa | 0 mm | - | - | - |
| 1777477557 | 20.56° C | 82% | 1017.1 hPa | 0 mm | - | - | - |
* Rain latest hour (hover to see other rain measurements)
** Current wind speed in m/s (hover to see current wind gust speed)